Time;durP1;ratioP1;P1;durP2;ratioP2;P2;SDS_P1;SDS_P2;PMS_P1;PMS_P2;Temp;Humidity;BMP_temperature;BMP_pressure;BME280_temperature;BME280_humidity;BME280_pressure;Samples;Min_cycle;Max_cycle;Signal;HPM_P1;HPM_P2
2024/02/20 08:15:04;;;;;;;;;;;;;;;;;;5193010;27;7576;-63
2024/02/20 10:27:21;;;;;;;;;33.25;31.25;;;;;;;;5071905;27;13544;-63
2024/02/20 10:50:25;;;;;;;;;36.00;31.50;;;;;;;;5056637;27;13505;-81
2024/02/20 10:52:52;;;;;;;;;28.75;26.50;;;;;;;;5026680;28;11509;-75
2024/02/20 10:55:21;;;;;;;;;31.00;29.50;;;;;;;;5047025;28;11040;-76
2024/02/20 10:57:47;;;;;;;;;29.00;27.25;;;;;;;;5041816;28;10581;-76
2024/02/20 11:00:13;;;;;;;;;27.67;27.33;;;;;;;;5044824;28;9678;-75
2024/02/20 11:02:39;;;;;;;;;27.67;26.33;;;;;;;;5045830;28;9162;-77
2024/02/20 11:05:13;;;;;;;;;27.00;25.00;;;;;;;;5046293;28;11608;-74
2024/02/20 11:07:38;;;;;;;;;26.25;24.50;;;;;;;;5044329;28;8800;-76
2024/02/20 11:10:08;;;;;;;;;28.33;26.00;;;;;;;;5045750;28;8869;-75
2024/02/20 11:12:33;;;;;;;;;24.50;23.75;;;;;;;;5044555;28;8834;-74
2024/02/20 11:15:09;;;;;;;;;27.00;25.00;;;;;;;;5046703;28;8792;-76
2024/02/20 11:17:35;;;;;;;;;23.00;20.00;;;;;;;;5044538;28;8964;-75
2024/02/20 11:20:14;;;;;;;;;22.67;22.67;;;;;;;;5044852;28;9060;-75
2024/02/20 11:22:40;;;;;;;;;21.67;21.67;;;;;;;;5046251;28;9131;-75
2024/02/20 11:25:06;;;;;;;;;20.67;20.67;;;;;;;;5058351;28;10895;-75
2024/02/20 11:27:38;;;;;;;;;25.50;23.50;;;;;;;;5061713;28;10080;-76
2024/02/20 11:30:19;;;;;;;;;25.25;24.25;;;;;;;;5044184;28;9984;-77
2024/02/20 11:32:45;;;;;;;;;24.25;21.00;;;;;;;;5045395;28;9655;-77
2024/02/20 11:35:21;;;;;;;;;25.50;24.50;;;;;;;;5045970;28;9580;-78
2024/02/20 11:37:47;;;;;;;;;30.50;25.75;;;;;;;;5041944;28;10648;-76
2024/02/20 11:40:20;;;;;;;;;21.00;18.75;;;;;;;;5046235;28;10210;-74
2024/02/20 11:42:45;;;;;;;;;18.00;16.75;;;;;;;;5040049;28;10054;-78
2024/02/20 11:45:20;;;;;;;;;12.75;10.50;;;;;;;;5046132;28;9893;-75
2024/02/20 11:48:05;;;;;;;;;19.00;18.25;;;;;;;;5044364;28;9938;-73
2024/02/20 11:50:32;;;;;;;;;20.25;18.75;;;;;;;;5043878;28;10959;-74
2024/02/20 11:53:17;;;;;;;;;18.25;16.50;;;;;;;;5043477;28;10126;-73
2024/02/20 11:55:42;;;;;;;;;19.00;18.00;;;;;;;;4918653;28;11309;-74
2024/02/20 11:58:08;;;;;;;;;16.75;15.75;;;;;;;;5095604;28;10209;-72
2024/02/20 12:00:38;;;;;;;;;16.50;16.50;;;;;;;;5058860;28;9665;-75
2024/02/20 12:03:03;;;;;;;;;16.75;16.25;;;;;;;;5051691;28;8817;-76
2024/02/20 12:05:37;;;;;;;;;13.75;13.00;;;;;;;;5051848;28;11169;-77
2024/02/20 12:08:10;;;;;;;;;19.50;17.50;;;;;;;;5049552;28;8916;-76
2024/02/20 12:10:36;;;;;;;;;13.75;13.75;;;;;;;;5051639;28;10365;-77
2024/02/20 12:13:10;;;;;;;;;15.25;14.25;;;;;;;;5050504;28;10907;-77
2024/02/20 12:15:36;;;;;;;;;14.75;13.00;;;;;;;;5050246;28;9558;-77
2024/02/20 12:18:02;;;;;;;;;19.00;19.00;;;;;;;;5048867;28;10136;-78
2024/02/20 12:20:27;;;;;;;;;21.25;19.75;;;;;;;;5051704;28;10399;-78
2024/02/20 12:22:57;;;;;;;;;21.25;18.50;;;;;;;;5051517;28;8813;-78
2024/02/20 12:25:23;;;;;;;;;8.00;7.25;;;;;;;;5031327;28;11326;-76
2024/02/20 12:27:48;;;;;;;;;7.25;7.25;;;;;;;;5040695;28;9677;-76
2024/02/20 12:30:14;;;;;;;;;6.50;6.00;;;;;;;;5026806;28;10064;-80
2024/02/20 12:32:40;;;;;;;;;3.25;3.25;;;;;;;;5030878;28;8804;-82
2024/02/20 12:35:05;;;;;;;;;6.00;5.00;;;;;;;;5031247;28;9853;-76
2024/02/20 12:37:31;;;;;;;;;25.50;23.25;;;;;;;;5029642;28;8795;-78
2024/02/20 12:39:57;;;;;;;;;8.00;8.00;;;;;;;;5030246;28;8842;-80
2024/02/20 12:42:22;;;;;;;;;4.00;4.00;;;;;;;;5030412;28;8920;-74
2024/02/20 12:44:48;;;;;;;;;6.50;6.50;;;;;;;;5031896;28;8826;-77
2024/02/20 12:47:13;;;;;;;;;10.50;8.25;;;;;;;;5030028;28;8823;-75
2024/02/20 12:49:39;;;;;;;;;9.50;8.75;;;;;;;;5030108;28;8843;-74
2024/02/20 12:52:04;;;;;;;;;4.25;4.25;;;;;;;;5063613;28;8833;-74
2024/02/20 12:54:30;;;;;;;;;12.25;11.50;;;;;;;;5031403;28;8800;-79
2024/02/20 12:56:57;;;;;;;;;3.50;3.50;;;;;;;;5028450;28;8847;-79
2024/02/20 12:59:22;;;;;;;;;5.00;4.00;;;;;;;;5030993;28;8903;-78
2024/02/20 13:01:48;;;;;;;;;3.00;3.00;;;;;;;;5021292;28;10288;-77
2024/02/20 13:04:13;;;;;;;;;3.00;3.00;;;;;;;;4954237;28;12175;-77
2024/02/20 13:06:39;;;;;;;;;4.50;4.00;;;;;;;;5046184;28;8840;-80
2024/02/20 13:09:04;;;;;;;;;3.00;3.00;;;;;;;;5039102;28;9792;-81
2024/02/20 13:11:29;;;;;;;;;3.00;3.00;;;;;;;;5054022;28;9998;-77
2024/02/20 13:13:57;;;;;;;;;2.00;2.00;;;;;;;;5050615;28;9606;-78
2024/02/20 13:16:22;;;;;;;;;2.50;2.50;;;;;;;;5050298;28;10076;-74
2024/02/20 13:18:48;;;;;;;;;2.00;2.00;;;;;;;;5051336;28;9820;-79
2024/02/20 13:21:14;;;;;;;;;3.00;3.00;;;;;;;;5055180;28;9788;-81
2024/02/20 13:23:39;;;;;;;;;3.00;3.00;;;;;;;;5053937;28;9005;-70
2024/02/20 13:26:05;;;;;;;;;4.25;4.25;;;;;;;;5050022;28;9530;-71
2024/02/20 13:28:31;;;;;;;;;2.25;2.25;;;;;;;;5049834;28;8839;-70
2024/02/20 13:30:56;;;;;;;;;2.00;2.00;;;;;;;;5049654;28;8829;-73
2024/02/20 13:33:21;;;;;;;;;2.00;2.00;;;;;;;;5050393;28;9731;-74
2024/02/20 13:35:47;;;;;;;;;3.00;3.00;;;;;;;;5050735;28;8847;-70
2024/02/20 13:38:13;;;;;;;;;4.00;4.00;;;;;;;;5048620;28;8813;-70
2024/02/20 13:40:39;;;;;;;;;5.00;5.00;;;;;;;;5049436;28;9565;-73
2024/02/20 13:43:08;;;;;;;;;2.00;2.00;;;;;;;;5049177;28;10176;-75
2024/02/20 13:45:42;;;;;;;;;5.00;2.00;;;;;;;;5059217;28;10128;-75
2024/02/20 13:48:10;;;;;;;;;2.50;1.75;;;;;;;;5048674;28;9750;-75
2024/02/20 13:50:35;;;;;;;;;2.00;2.00;;;;;;;;5051323;28;10473;-76
2024/02/20 13:53:01;;;;;;;;;2.00;2.00;;;;;;;;5050264;28;9904;-77
2024/02/20 13:57:20;;;;;;;;;3.00;3.00;;;;;;;;5105181;27;13408;-78
2024/02/20 13:59:45;;;;;;;;;2.00;2.00;;;;;;;;5122612;27;9732;-72
2024/02/20 14:02:11;;;;;;;;;2.00;2.00;;;;;;;;5128231;27;9789;-72
2024/02/20 14:04:36;;;;;;;;;1.50;1.50;;;;;;;;5128079;27;8811;-77
2024/02/20 14:07:02;;;;;;;;;1.00;1.00;;;;;;;;5128413;27;8935;-77
2024/02/20 14:09:28;;;;;;;;;1.00;1.00;;;;;;;;5127153;27;8809;-78
2024/02/20 14:11:54;;;;;;;;;1.25;1.00;;;;;;;;5128435;27;10505;-78
2024/02/20 14:14:19;;;;;;;;;1.00;1.00;;;;;;;;5127053;27;9865;-79
2024/02/20 14:16:44;;;;;;;;;2.00;2.00;;;;;;;;5115202;27;9294;-78
2024/02/20 14:19:09;;;;;;;;;1.50;1.50;;;;;;;;5095317;28;8814;-78
2024/02/20 14:21:35;;;;;;;;;1.00;1.00;;;;;;;;5086266;28;8834;-78
2024/02/20 14:24:00;;;;;;;;;1.00;1.00;;;;;;;;5082057;28;10054;-78
2024/02/20 14:26:25;;;;;;;;;1.25;1.25;;;;;;;;5064781;28;9888;-78
2024/02/20 14:28:50;;;;;;;;;1.00;1.00;;;;;;;;5082049;28;9560;-74
2024/02/20 14:31:16;;;;;;;;;4.00;2.00;;;;;;;;5087192;28;8821;-73
2024/02/20 14:33:43;;;;;;;;;4.00;3.00;;;;;;;;5087252;28;8817;-75
2024/02/20 14:36:08;;;;;;;;;2.00;2.00;;;;;;;;5086655;28;8834;-75
2024/02/20 14:38:33;;;;;;;;;1.00;1.00;;;;;;;;5080544;28;9830;-75
2024/02/20 14:40:59;;;;;;;;;2.00;2.00;;;;;;;;5086997;28;9548;-72
2024/02/20 14:43:24;;;;;;;;;2.00;2.00;;;;;;;;5086214;28;8794;-70
2024/02/20 14:45:50;;;;;;;;;2.75;2.00;;;;;;;;5086838;28;8806;-73
2024/02/20 14:48:16;;;;;;;;;1.25;1.00;;;;;;;;5086226;28;8819;-76
2024/02/20 14:50:41;;;;;;;;;2.75;1.25;;;;;;;;5081469;27;10040;-76
2024/02/20 14:53:07;;;;;;;;;2.00;2.00;;;;;;;;5068548;28;8806;-74
2024/02/20 14:55:33;;;;;;;;;3.00;3.00;;;;;;;;5064635;28;9528;-77
2024/02/20 14:58:03;;;;;;;;;2.00;2.00;;;;;;;;5063681;28;8827;-77
2024/02/20 15:00:29;;;;;;;;;2.00;2.00;;;;;;;;5065558;28;11620;-78
2024/02/20 15:02:54;;;;;;;;;2.00;2.00;;;;;;;;5066297;28;10090;-72
2024/02/20 15:05:19;;;;;;;;;4.00;4.00;;;;;;;;5066147;28;8809;-73
2024/02/20 15:07:45;;;;;;;;;2.75;2.00;;;;;;;;5057833;28;8816;-73
2024/02/20 15:10:12;;;;;;;;;2.00;2.00;;;;;;;;5052192;28;8939;-73
2024/02/20 15:12:38;;;;;;;;;4.00;2.25;;;;;;;;5033649;28;8881;-73
2024/02/20 15:15:04;;;;;;;;;3.00;3.00;;;;;;;;5033440;28;9894;-72
2024/02/20 15:17:35;;;;;;;;;3.00;2.00;;;;;;;;5044778;28;9897;-73
2024/02/20 15:20:02;;;;;;;;;1.75;1.00;;;;;;;;5052208;28;8823;-72
2024/02/20 15:22:28;;;;;;;;;2.75;2.75;;;;;;;;5053094;28;10663;-72
2024/02/20 15:24:54;;;;;;;;;3.00;2.50;;;;;;;;5052889;28;9885;-72
2024/02/20 15:27:23;;;;;;;;;2.75;2.75;;;;;;;;5052531;28;9728;-72
2024/02/20 15:29:49;;;;;;;;;2.00;2.00;;;;;;;;5052798;28;10819;-82
2024/02/20 15:32:16;;;;;;;;;2.00;2.00;;;;;;;;5052725;28;10039;-70
2024/02/20 15:34:44;;;;;;;;;2.75;2.00;;;;;;;;5048917;28;9531;-71
2024/02/20 15:37:10;;;;;;;;;2.00;2.00;;;;;;;;5032053;28;9950;-68
2024/02/20 15:39:36;;;;;;;;;3.75;3.00;;;;;;;;5037235;28;10068;-68
2024/02/20 15:42:05;;;;;;;;;3.00;3.00;;;;;;;;5042050;28;8815;-69
2024/02/20 15:44:32;;;;;;;;;3.00;3.00;;;;;;;;5051495;28;8832;-68
2024/02/20 15:46:57;;;;;;;;;3.50;2.75;;;;;;;;5052432;28;9900;-68
2024/02/20 15:49:25;;;;;;;;;3.00;3.00;;;;;;;;5051871;28;9856;-69
2024/02/20 15:51:51;;;;;;;;;2.00;2.00;;;;;;;;5052427;28;8805;-68
2024/02/20 15:54:16;;;;;;;;;4.00;2.00;;;;;;;;5052142;28;9699;-70
2024/02/20 15:56:43;;;;;;;;;2.50;2.50;;;;;;;;5052013;28;9621;-73
2024/02/20 15:59:08;;;;;;;;;4.00;2.00;;;;;;;;4936237;28;11605;-74
2024/02/20 16:01:33;;;;;;;;;3.00;3.00;;;;;;;;5059135;28;10057;-74
2024/02/20 16:03:58;;;;;;;;;4.75;2.50;;;;;;;;5050084;28;9014;-74
2024/02/20 16:06:25;;;;;;;;;4.00;3.50;;;;;;;;5049660;28;8856;-74
2024/02/20 16:08:50;;;;;;;;;6.00;5.25;;;;;;;;5051265;28;8867;-74
2024/02/20 16:11:15;;;;;;;;;4.00;4.00;;;;;;;;5051887;28;10275;-74
2024/02/20 16:13:41;;;;;;;;;3.25;3.25;;;;;;;;5050330;28;8835;-69
2024/02/20 16:16:12;;;;;;;;;8.75;7.75;;;;;;;;5051657;28;8862;-72
2024/02/20 16:18:40;;;;;;;;;5.00;5.00;;;;;;;;5062802;28;8815;-71
2024/02/20 16:21:05;;;;;;;;;6.75;6.75;;;;;;;;5031500;28;10272;-71
2024/02/20 16:23:31;;;;;;;;;6.00;4.00;;;;;;;;5031808;28;10508;-71
2024/02/20 16:25:58;;;;;;;;;4.50;4.50;;;;;;;;5030277;28;8815;-70
2024/02/20 16:28:25;;;;;;;;;6.00;4.50;;;;;;;;5031900;28;8772;-72
2024/02/20 16:30:50;;;;;;;;;9.00;6.00;;;;;;;;5031801;28;10409;-77
2024/02/20 16:33:16;;;;;;;;;9.00;7.50;;;;;;;;5031544;28;10554;-71
2024/02/20 16:35:41;;;;;;;;;9.25;9.00;;;;;;;;5030349;28;8808;-70
2024/02/20 16:38:06;;;;;;;;;6.25;4.00;;;;;;;;5031673;28;8783;-69
2024/02/20 16:40:31;;;;;;;;;9.00;7.00;;;;;;;;5043773;28;8793;-69
2024/02/20 16:42:57;;;;;;;;;6.75;6.75;;;;;;;;5049101;28;8927;-71
2024/02/20 16:45:22;;;;;;;;;6.50;6.00;;;;;;;;5050645;28;8879;-71
2024/02/20 16:47:47;;;;;;;;;7.75;7.50;;;;;;;;5049768;28;8825;-71
2024/02/20 16:50:13;;;;;;;;;8.75;6.75;;;;;;;;5049894;28;8808;-70
2024/02/20 16:52:39;;;;;;;;;9.50;7.25;;;;;;;;5051245;28;8789;-73
2024/02/20 16:55:05;;;;;;;;;9.75;8.50;;;;;;;;5050773;28;8854;-72
2024/02/20 16:57:30;;;;;;;;;12.50;10.75;;;;;;;;5051036;28;11494;-72
2024/02/20 16:59:56;;;;;;;;;11.25;10.25;;;;;;;;5049817;28;8828;-71
2024/02/20 17:02:21;;;;;;;;;12.00;10.75;;;;;;;;5050823;28;8827;-71
2024/02/20 17:04:47;;;;;;;;;13.00;11.00;;;;;;;;5050091;28;8894;-73
2024/02/20 17:07:16;;;;;;;;;12.75;12.00;;;;;;;;5051130;28;8803;-71
2024/02/20 17:09:41;;;;;;;;;11.25;9.75;;;;;;;;5051047;28;8963;-72
2024/02/20 17:12:06;;;;;;;;;11.00;10.50;;;;;;;;5050945;28;10961;-71
2024/02/20 17:14:31;;;;;;;;;11.50;11.25;;;;;;;;5051113;28;8774;-72
2024/02/20 17:16:57;;;;;;;;;10.00;9.00;;;;;;;;5049942;28;8845;-71
2024/02/20 17:19:22;;;;;;;;;8.25;8.25;;;;;;;;5049657;28;8923;-71
2024/02/20 17:21:48;;;;;;;;;12.25;9.00;;;;;;;;5049732;28;8831;-72
2024/02/20 17:24:13;;;;;;;;;9.00;8.50;;;;;;;;5050731;28;8827;-72
2024/02/20 17:26:39;;;;;;;;;11.00;10.50;;;;;;;;5049520;28;8817;-72
2024/02/20 17:29:05;;;;;;;;;9.00;8.75;;;;;;;;5049626;28;8813;-71
2024/02/20 17:31:31;;;;;;;;;11.00;8.25;;;;;;;;5049062;28;8817;-71
2024/02/20 17:33:57;;;;;;;;;12.75;12.75;;;;;;;;5050538;28;8793;-71
2024/02/20 17:36:22;;;;;;;;;16.75;13.50;;;;;;;;5050324;28;11187;-71
2024/02/20 17:38:50;;;;;;;;;22.75;18.00;;;;;;;;5050466;28;11210;-72
2024/02/20 17:41:20;;;;;;;;;17.00;14.50;;;;;;;;5049256;28;8817;-72
2024/02/20 17:43:45;;;;;;;;;13.75;13.00;;;;;;;;5050134;28;11431;-74
2024/02/20 17:46:16;;;;;;;;;11.50;11.00;;;;;;;;5049710;28;11504;-75
2024/02/20 17:48:42;;;;;;;;;12.75;12.75;;;;;;;;5050597;28;8781;-78
2024/02/20 17:51:07;;;;;;;;;11.00;9.00;;;;;;;;5050512;28;11977;-75
2024/02/20 17:53:33;;;;;;;;;13.25;11.75;;;;;;;;5050667;28;11124;-77
2024/02/20 17:55:59;;;;;;;;;13.50;11.75;;;;;;;;5050180;28;8813;-72
2024/02/20 17:58:24;;;;;;;;;12.75;12.00;;;;;;;;5049068;28;8801;-71
2024/02/20 18:00:49;;;;;;;;;10.00;10.00;;;;;;;;5046238;28;11163;-70
2024/02/20 18:03:15;;;;;;;;;14.50;12.00;;;;;;;;5049617;28;8817;-70
2024/02/20 18:05:40;;;;;;;;;9.50;9.00;;;;;;;;5049351;28;8794;-72
2024/02/20 18:08:05;;;;;;;;;13.25;11.50;;;;;;;;5048123;28;8865;-71
2024/02/20 18:10:31;;;;;;;;;11.00;11.00;;;;;;;;5048728;28;8806;-71
2024/02/20 18:12:56;;;;;;;;;13.75;12.00;;;;;;;;5047638;28;8818;-70
2024/02/20 18:15:22;;;;;;;;;12.00;10.50;;;;;;;;5049036;28;8860;-71
2024/02/20 18:17:48;;;;;;;;;10.75;10.75;;;;;;;;5044094;22;8999;-70
2024/02/20 18:20:13;;;;;;;;;11.75;11.00;;;;;;;;5009285;28;11538;-70
2024/02/20 18:22:39;;;;;;;;;12.00;11.00;;;;;;;;5007757;28;11490;-68
2024/02/20 18:25:04;;;;;;;;;10.00;10.00;;;;;;;;5015738;28;9601;-68
2024/02/20 18:27:29;;;;;;;;;8.50;8.50;;;;;;;;5019687;28;8837;-72
2024/02/20 18:29:55;;;;;;;;;10.50;8.50;;;;;;;;5020466;28;8858;-71
2024/02/20 18:32:20;;;;;;;;;13.00;11.75;;;;;;;;5017422;28;8829;-69
2024/02/20 18:34:45;;;;;;;;;11.75;11.00;;;;;;;;5021425;28;8816;-72
2024/02/20 18:37:13;;;;;;;;;19.75;12.75;;;;;;;;5017897;28;8831;-77
2024/02/20 18:39:43;;;;;;;;;13.00;11.75;;;;;;;;5013604;28;8832;-77
2024/02/20 18:42:08;;;;;;;;;16.75;14.75;;;;;;;;5019892;28;12225;-76
2024/02/20 18:44:34;;;;;;;;;19.50;17.25;;;;;;;;5024488;28;11510;-76
2024/02/20 18:46:59;;;;;;;;;12.00;12.00;;;;;;;;5022822;28;8838;-76
2024/02/20 18:49:24;;;;;;;;;11.75;11.75;;;;;;;;5021713;28;9608;-77
2024/02/20 18:51:49;;;;;;;;;15.75;13.75;;;;;;;;5022711;28;8824;-76
2024/02/20 18:54:17;;;;;;;;;12.75;12.50;;;;;;;;5020632;28;8810;-76
2024/02/20 18:56:43;;;;;;;;;14.00;14.00;;;;;;;;5023195;28;8826;-76
2024/02/20 18:59:08;;;;;;;;;15.75;14.00;;;;;;;;5023555;28;12251;-77
2024/02/20 19:01:33;;;;;;;;;14.00;14.00;;;;;;;;5021754;28;9068;-78
2024/02/20 19:03:58;;;;;;;;;21.75;17.00;;;;;;;;5020588;28;8799;-70
2024/02/20 19:06:24;;;;;;;;;12.75;12.75;;;;;;;;5023582;28;9622;-72
2024/02/20 19:08:49;;;;;;;;;17.00;13.75;;;;;;;;5023066;28;8812;-72
2024/02/20 19:11:14;;;;;;;;;20.50;18.50;;;;;;;;5023808;28;8871;-76
2024/02/20 19:13:42;;;;;;;;;19.00;18.75;;;;;;;;5020444;28;8845;-77
2024/02/20 19:16:08;;;;;;;;;17.00;17.00;;;;;;;;5023819;28;8920;-76
2024/02/20 19:18:35;;;;;;;;;17.75;14.25;;;;;;;;5023246;28;11523;-80
2024/02/20 19:21:01;;;;;;;;;19.75;17.00;;;;;;;;5018522;28;8807;-75
2024/02/20 19:23:26;;;;;;;;;21.50;18.00;;;;;;;;5023527;28;11531;-79
2024/02/20 19:25:54;;;;;;;;;18.00;18.00;;;;;;;;5021736;28;8839;-76
2024/02/20 19:28:20;;;;;;;;;19.75;19.75;;;;;;;;5022546;28;8794;-78
2024/02/20 19:30:45;;;;;;;;;17.00;16.75;;;;;;;;5020523;28;11513;-77
2024/02/20 19:33:11;;;;;;;;;16.25;16.00;;;;;;;;5022971;28;8928;-71
2024/02/20 19:35:39;;;;;;;;;17.00;14.75;;;;;;;;5019668;28;8865;-73
2024/02/20 19:38:06;;;;;;;;;19.00;18.00;;;;;;;;5021699;28;11515;-73
2024/02/20 19:40:32;;;;;;;;;18.25;16.75;;;;;;;;5019867;28;11475;-74
2024/02/20 19:42:58;;;;;;;;;18.25;17.50;;;;;;;;5023538;28;11448;-69
2024/02/20 19:45:23;;;;;;;;;21.50;19.25;;;;;;;;5021101;28;11544;-79
2024/02/20 19:47:52;;;;;;;;;21.50;18.50;;;;;;;;5021842;28;9571;-80
2024/02/20 19:50:21;;;;;;;;;19.25;18.75;;;;;;;;5023023;28;8803;-82
2024/02/20 19:52:46;;;;;;;;;21.50;19.75;;;;;;;;5017859;28;11570;-85
2024/02/20 19:55:11;;;;;;;;;20.50;18.00;;;;;;;;5021714;28;11577;-83
2024/02/20 19:57:43;;;;;;;;;25.75;19.75;;;;;;;;5022917;28;8927;-82
2024/02/20 20:00:09;;;;;;;;;17.75;16.50;;;;;;;;5019799;28;8822;-83
2024/02/20 20:02:35;;;;;;;;;17.00;17.00;;;;;;;;5021276;28;11526;-85
2024/02/20 20:05:00;;;;;;;;;22.50;18.25;;;;;;;;5022097;28;11500;-85
2024/02/20 20:07:25;;;;;;;;;24.25;19.25;;;;;;;;5018296;28;8904;-79
2024/02/20 20:09:51;;;;;;;;;17.25;16.25;;;;;;;;5024155;28;8830;-80
2024/02/20 20:12:16;;;;;;;;;21.00;17.25;;;;;;;;5016712;28;8796;-82
2024/02/20 20:14:41;;;;;;;;;17.25;17.25;;;;;;;;5021062;28;8820;-83
2024/02/20 20:17:06;;;;;;;;;17.75;17.75;;;;;;;;5021034;28;8953;-71
2024/02/20 20:19:34;;;;;;;;;16.75;16.75;;;;;;;;5029193;28;8804;-72
2024/02/20 20:22:00;;;;;;;;;21.50;19.50;;;;;;;;5009634;28;8830;-72
2024/02/20 20:24:25;;;;;;;;;25.75;21.00;;;;;;;;5014748;28;11676;-74
2024/02/20 20:26:51;;;;;;;;;24.25;20.75;;;;;;;;5031395;28;8889;-74
2024/02/20 20:29:17;;;;;;;;;25.25;21.00;;;;;;;;5031307;28;8884;-74
2024/02/20 20:31:42;;;;;;;;;25.75;20.50;;;;;;;;5017940;28;8852;-70
2024/02/20 20:34:08;;;;;;;;;22.75;17.75;;;;;;;;5011460;28;8837;-73
2024/02/20 20:36:35;;;;;;;;;22.25;20.75;;;;;;;;5009902;28;8875;-72
2024/02/20 20:39:02;;;;;;;;;21.00;19.00;;;;;;;;5005996;28;8840;-74
2024/02/20 20:41:28;;;;;;;;;28.00;21.50;;;;;;;;5010856;28;11551;-74
2024/02/20 20:43:53;;;;;;;;;26.00;20.75;;;;;;;;5010911;28;11574;-75
2024/02/20 20:46:18;;;;;;;;;22.75;21.00;;;;;;;;5010964;28;8891;-75
2024/02/20 20:48:43;;;;;;;;;24.25;21.00;;;;;;;;5009552;28;8846;-74
2024/02/20 20:51:09;;;;;;;;;26.00;20.75;;;;;;;;5010991;28;8796;-76
2024/02/20 20:53:34;;;;;;;;;20.50;20.00;;;;;;;;5011366;28;8826;-76
2024/02/20 20:55:59;;;;;;;;;21.75;21.00;;;;;;;;5010593;28;8836;-74
2024/02/20 20:58:24;;;;;;;;;19.50;18.25;;;;;;;;5010761;28;8808;-75
2024/02/20 21:00:50;;;;;;;;;25.25;20.25;;;;;;;;5009217;28;8808;-74
2024/02/20 21:03:15;;;;;;;;;18.25;16.25;;;;;;;;5010424;28;8793;-75
2024/02/20 21:05:41;;;;;;;;;31.00;23.00;;;;;;;;5010074;28;9604;-73
2024/02/20 21:08:09;;;;;;;;;28.00;26.50;;;;;;;;5008267;28;8842;-74
2024/02/20 21:10:36;;;;;;;;;29.50;23.50;;;;;;;;5010062;28;8806;-73
2024/02/20 21:13:02;;;;;;;;;28.25;25.75;;;;;;;;5010459;28;12371;-73
2024/02/20 21:15:27;;;;;;;;;28.50;25.25;;;;;;;;5010121;28;11573;-73
2024/02/20 21:17:54;;;;;;;;;29.75;26.00;;;;;;;;5010427;28;8901;-73
2024/02/20 21:20:19;;;;;;;;;28.75;24.75;;;;;;;;5010544;28;8804;-73
2024/02/20 21:22:45;;;;;;;;;38.50;34.50;;;;;;;;5008843;28;11629;-73
2024/02/20 21:25:11;;;;;;;;;34.00;31.25;;;;;;;;5009305;28;8846;-73
2024/02/20 21:27:36;;;;;;;;;35.00;29.50;;;;;;;;5010468;28;11673;-73
2024/02/20 21:30:04;;;;;;;;;33.50;29.25;;;;;;;;5010147;28;8806;-72
2024/02/20 21:32:29;;;;;;;;;37.75;31.25;;;;;;;;5009201;28;8820;-73
2024/02/20 21:34:54;;;;;;;;;31.25;31.25;;;;;;;;5010664;28;11052;-75
2024/02/20 21:37:20;;;;;;;;;39.00;33.25;;;;;;;;5041831;28;8846;-86
2024/02/20 21:39:45;;;;;;;;;38.75;34.50;;;;;;;;5010303;28;8812;-86
2024/02/20 21:42:10;;;;;;;;;41.00;34.00;;;;;;;;5010430;28;8806;-80
2024/02/20 21:44:36;;;;;;;;;37.75;34.00;;;;;;;;5010630;28;8894;-83
2024/02/20 21:47:01;;;;;;;;;36.00;34.00;;;;;;;;5010307;28;8842;-84
2024/02/20 21:49:27;;;;;;;;;42.75;33.00;;;;;;;;5008743;28;8807;-80
2024/02/20 21:51:52;;;;;;;;;42.25;38.25;;;;;;;;5009723;28;8939;-74
2024/02/20 21:54:18;;;;;;;;;40.50;35.75;;;;;;;;5011303;28;8857;-76
2024/02/20 21:56:43;;;;;;;;;37.00;35.00;;;;;;;;5029885;28;8885;-84
2024/02/20 21:59:08;;;;;;;;;41.75;36.00;;;;;;;;5017278;28;8803;-82
2024/02/20 22:01:34;;;;;;;;;34.75;33.25;;;;;;;;5010683;28;8876;-84
2024/02/20 22:03:59;;;;;;;;;37.25;35.75;;;;;;;;5010424;28;8802;-85
2024/02/20 22:06:24;;;;;;;;;33.75;32.25;;;;;;;;5010436;28;8810;-83
2024/02/20 22:08:50;;;;;;;;;41.00;39.00;;;;;;;;5041921;28;8846;-84
2024/02/20 22:11:15;;;;;;;;;38.25;33.00;;;;;;;;5009071;28;8806;-84
2024/02/20 22:13:42;;;;;;;;;38.00;36.00;;;;;;;;5010517;28;9537;-85
2024/02/20 22:16:07;;;;;;;;;38.00;33.75;;;;;;;;5010429;28;9015;-83
2024/02/20 22:18:33;;;;;;;;;36.25;34.25;;;;;;;;5012904;28;11565;-85
2024/02/20 22:20:58;;;;;;;;;31.50;31.50;;;;;;;;5013811;28;8811;-85
2024/02/20 22:23:26;;;;;;;;;38.25;33.50;;;;;;;;5013664;28;9566;-85
2024/02/20 22:25:51;;;;;;;;;32.00;29.25;;;;;;;;5015913;28;9537;-87
2024/02/20 22:28:17;;;;;;;;;33.25;31.50;;;;;;;;5012100;28;11579;-84
2024/02/20 22:30:45;;;;;;;;;36.00;32.50;;;;;;;;5013928;28;8904;-85
2024/02/20 22:33:10;;;;;;;;;39.75;36.50;;;;;;;;5014014;28;11581;-77
2024/02/20 22:35:36;;;;;;;;;37.00;34.00;;;;;;;;5013868;28;11583;-78
2024/02/20 22:38:02;;;;;;;;;33.75;29.00;;;;;;;;5013784;28;8818;-76
2024/02/20 22:40:28;;;;;;;;;38.75;31.25;;;;;;;;5012592;28;8885;-77
2024/02/20 22:42:53;;;;;;;;;35.75;33.00;;;;;;;;5013771;28;11558;-78
2024/02/20 22:45:19;;;;;;;;;37.25;31.00;;;;;;;;5012595;28;8810;-78
2024/02/20 22:47:45;;;;;;;;;34.00;32.50;;;;;;;;5013773;28;8925;-84
2024/02/20 22:50:13;;;;;;;;;32.50;31.25;;;;;;;;5012597;28;8830;-81
2024/02/20 22:52:38;;;;;;;;;38.50;31.75;;;;;;;;5013458;28;9568;-83
2024/02/20 22:55:04;;;;;;;;;31.75;31.50;;;;;;;;5013297;28;11586;-84
2024/02/20 22:57:29;;;;;;;;;36.00;31.75;;;;;;;;5013554;28;8913;-72
2024/02/20 22:59:55;;;;;;;;;38.50;30.00;;;;;;;;5013605;28;9012;-73
2024/02/20 23:02:23;;;;;;;;;39.00;33.00;;;;;;;;5012649;28;8821;-73
2024/02/20 23:04:49;;;;;;;;;38.00;32.00;;;;;;;;5011048;28;8826;-71
2024/02/20 23:07:14;;;;;;;;;34.75;31.00;;;;;;;;5010257;28;11726;-73
2024/02/20 23:09:43;;;;;;;;;39.00;29.00;;;;;;;;5012858;28;8946;-73
2024/02/20 23:12:13;;;;;;;;;39.00;31.00;;;;;;;;5012545;28;8826;-73
2024/02/20 23:14:42;;;;;;;;;36.50;33.25;;;;;;;;5042242;28;11598;-73
